Time;durP1;ratioP1;P1;durP2;ratioP2;P2;SDS_P1;SDS_P2;PMS_P1;PMS_P2;Temp;Humidity;BMP_temperature;BMP_pressure;BME280_temperature;BME280_humidity;BME280_pressure;Samples;Min_cycle;Max_cycle;Signal;HPM_P1;HPM_P2
2021/07/24 00:00:13;;;;;;;10.40;9.30;;;21.30;96.00;;;;;;5095358;28;20172;-71
2021/07/24 00:02:38;;;;;;;9.63;8.80;;;21.30;96.00;;;;;;5095683;28;20402;-71
2021/07/24 00:05:05;;;;;;;9.83;9.03;;;21.40;96.20;;;;;;5114716;28;20476;-71
2021/07/24 00:07:30;;;;;;;9.30;8.50;;;21.40;95.70;;;;;;5104658;28;20203;-71
2021/07/24 00:09:56;;;;;;;10.40;9.50;;;21.40;96.40;;;;;;5094340;28;20886;-70
2021/07/24 00:12:22;;;;;;;10.63;9.73;;;21.40;95.80;;;;;;5095058;28;20173;-70
2021/07/24 00:14:47;;;;;;;10.50;9.60;;;21.40;95.90;;;;;;5093884;28;20193;-78
2021/07/24 00:17:13;;;;;;;9.87;8.87;;;21.30;96.40;;;;;;5093407;28;20195;-71
2021/07/24 00:19:38;;;;;;;10.50;9.63;;;21.30;96.00;;;;;;5095027;28;20176;-71
2021/07/24 00:22:05;;;;;;;12.50;10.03;;;21.20;96.40;;;;;;5093605;28;20229;-70
2021/07/24 00:24:30;;;;;;;12.20;10.90;;;21.20;96.00;;;;;;5094834;28;20237;-71
2021/07/24 00:26:56;;;;;;;11.13;10.23;;;21.20;96.20;;;;;;5094083;28;20869;-70
2021/07/24 00:29:22;;;;;;;12.50;11.30;;;21.20;95.90;;;;;;5094504;28;20172;-70
2021/07/24 00:31:47;;;;;;;13.17;11.67;;;21.20;96.30;;;;;;5092717;28;20173;-78
2021/07/24 00:34:17;;;;;;;12.23;11.03;;;21.20;96.10;;;;;;5094410;28;20179;-70
2021/07/24 00:36:44;;;;;;;12.63;11.57;;;21.20;96.00;;;;;;5094722;28;20536;-71
2021/07/24 00:39:10;;;;;;;12.37;11.17;;;21.20;96.00;;;;;;5093371;28;20446;-70
2021/07/24 00:42:00;;;;;;;11.53;10.63;;;21.10;96.30;;;;;;5094463;28;20425;-71
2021/07/24 00:44:27;;;;;;;11.57;10.57;;;21.10;95.90;;;;;;5105668;28;21068;-71
2021/07/24 00:46:55;;;;;;;12.10;11.10;;;21.00;96.10;;;;;;5073364;28;20404;-71
2021/07/24 00:49:22;;;;;;;12.20;11.20;;;21.00;96.20;;;;;;5074412;28;20431;-71
2021/07/24 00:51:49;;;;;;;12.17;11.10;;;21.00;96.40;;;;;;5073711;28;20416;-77
2021/07/24 00:54:15;;;;;;;12.63;11.53;;;20.90;96.90;;;;;;5073566;28;20419;-70
2021/07/24 00:56:42;;;;;;;12.37;11.10;;;20.90;96.20;;;;;;5074043;28;20760;-71
2021/07/24 00:59:08;;;;;;;11.63;10.50;;;21.00;96.50;;;;;;5073023;28;20488;-71
2021/07/24 01:01:36;;;;;;;11.23;10.23;;;21.00;97.00;;;;;;5073882;28;20415;-71
2021/07/24 01:04:03;;;;;;;13.10;11.80;;;20.90;96.70;;;;;;5089007;28;20192;-71
2021/07/24 01:06:30;;;;;;;11.00;10.10;;;20.90;96.80;;;;;;5093304;28;20422;-70
2021/07/24 01:08:56;;;;;;;13.20;12.03;;;21.00;97.90;;;;;;5092974;28;20418;-70
2021/07/24 01:11:22;;;;;;;10.93;9.83;;;21.10;99.90;;;;;;5094115;28;20414;-70
2021/07/24 01:13:49;;;;;;;11.50;10.40;;;21.20;99.90;;;;;;5093575;28;20417;-78
2021/07/24 01:16:15;;;;;;;11.17;10.17;;;21.30;97.20;;;;;;5091453;28;20185;-71
2021/07/24 01:18:41;;;;;;;10.87;9.77;;;21.20;95.60;;;;;;5093650;28;20421;-72
2021/07/24 01:21:09;;;;;;;11.83;10.83;;;21.10;95.60;;;;;;5091292;28;20709;-70
2021/07/24 01:23:36;;;;;;;11.67;10.57;;;21.00;95.80;;;;;;5118811;27;20181;-70
2021/07/24 01:26:03;;;;;;;12.43;11.40;;;20.90;96.00;;;;;;5072548;28;20454;-70
2021/07/24 01:28:33;;;;;;;12.73;11.50;;;20.70;96.30;;;;;;5086444;28;20410;-71
2021/07/24 01:31:01;;;;;;;12.30;11.30;;;20.60;96.50;;;;;;5092483;28;20429;-70
2021/07/24 01:33:27;;;;;;;13.10;11.67;;;20.40;96.90;;;;;;5099766;28;20413;-70
2021/07/24 01:35:53;;;;;;;12.40;11.10;;;20.30;97.80;;;;;;5099765;28;20411;-75
2021/07/24 01:38:20;;;;;;;12.03;10.93;;;20.20;97.70;;;;;;5093417;28;20411;-70
2021/07/24 01:40:46;;;;;;;13.20;11.43;;;20.10;98.00;;;;;;5091845;28;20924;-70
2021/07/24 01:43:12;;;;;;;12.07;10.93;;;19.90;98.40;;;;;;5092262;28;20472;-70
2021/07/24 01:45:39;;;;;;;11.87;10.67;;;19.70;98.70;;;;;;5092729;28;20246;-70
2021/07/24 01:48:11;;;;;;;12.07;10.97;;;19.70;99.20;;;;;;5092084;28;20178;-70
2021/07/24 01:53:23;;;;;;;13.20;11.03;;;19.60;99.40;;;;;;5096990;28;20414;-70
2021/07/24 01:56:02;;;;;;;12.33;11.23;;;19.50;99.70;;;;;;5093080;28;20423;-70
2021/07/24 01:58:33;;;;;;;12.00;11.00;;;19.50;99.70;;;;;;5092807;28;20909;-70
2021/07/24 02:01:00;;;;;;;13.20;11.93;;;19.50;99.90;;;;;;5091982;28;20779;-70
2021/07/24 02:03:40;;;;;;;12.47;11.27;;;19.50;99.90;;;;;;5092658;28;20410;-70
2021/07/24 02:06:11;;;;;;;11.97;10.97;;;19.40;99.90;;;;;;5091827;28;20818;-70
2021/07/24 02:08:36;;;;;;;12.23;11.03;;;19.30;99.90;;;;;;5092905;28;20394;-70
2021/07/24 02:11:04;;;;;;;12.27;11.07;;;19.30;99.90;;;;;;5124732;27;20410;-70
2021/07/24 02:13:30;;;;;;;14.80;12.07;;;19.30;99.90;;;;;;5092785;28;20177;-70
2021/07/24 02:15:56;;;;;;;12.60;11.40;;;19.30;99.90;;;;;;5091664;28;21000;-73
2021/07/24 02:18:22;;;;;;;11.90;10.70;;;19.30;99.90;;;;;;5092494;28;20445;-70
2021/07/24 02:20:49;;;;;;;12.50;10.57;;;19.30;99.90;;;;;;5092642;28;20411;-70
2021/07/24 02:23:16;;;;;;;13.00;11.70;;;19.30;99.90;;;;;;5091830;28;21094;-70
2021/07/24 02:25:42;;;;;;;12.57;11.40;;;19.20;99.90;;;;;;5092542;28;20453;-70
2021/07/24 02:28:08;;;;;;;13.90;12.47;;;19.20;99.90;;;;;;5092056;28;20418;-70
2021/07/24 02:30:34;;;;;;;13.30;12.00;;;19.10;99.90;;;;;;5092790;28;20407;-70
2021/07/24 02:33:00;;;;;;;13.73;11.83;;;18.90;99.90;;;;;;5090434;28;20524;-70
2021/07/24 02:35:25;;;;;;;13.63;12.23;;;18.70;99.90;;;;;;5092218;28;20183;-70
2021/07/24 02:37:51;;;;;;;14.63;13.23;;;18.70;99.90;;;;;;5092532;28;20426;-70
2021/07/24 02:40:17;;;;;;;12.93;11.80;;;18.80;99.90;;;;;;5091550;28;20647;-70
2021/07/24 02:42:43;;;;;;;13.87;12.67;;;18.90;99.90;;;;;;5091145;28;20230;-70
2021/07/24 02:45:10;;;;;;;13.10;11.90;;;18.80;99.90;;;;;;5091681;28;20486;-70
2021/07/24 02:47:36;;;;;;;13.50;12.10;;;18.80;99.90;;;;;;5091827;28;20418;-70
2021/07/24 02:50:02;;;;;;;12.67;11.43;;;18.80;99.90;;;;;;5091149;28;20410;-70
2021/07/24 02:52:28;;;;;;;13.37;12.10;;;18.80;99.90;;;;;;5092352;28;20247;-70
2021/07/24 02:54:54;;;;;;;14.80;13.40;;;18.80;99.90;;;;;;5092167;28;20458;-77
2021/07/24 02:57:19;;;;;;;13.03;11.83;;;18.90;99.90;;;;;;5101154;28;20172;-70
2021/07/24 02:59:45;;;;;;;14.30;12.80;;;18.90;99.90;;;;;;5112547;28;20180;-70
2021/07/24 03:02:14;;;;;;;12.80;11.60;;;18.80;99.90;;;;;;5115272;28;20183;-70
2021/07/24 03:04:39;;;;;;;12.40;11.40;;;18.80;99.90;;;;;;5116804;28;20569;-69
2021/07/24 03:07:05;;;;;;;13.50;12.23;;;18.90;99.90;;;;;;5115894;28;20408;-70
2021/07/24 03:09:31;;;;;;;14.00;12.80;;;18.90;99.90;;;;;;5116616;28;20182;-70
2021/07/24 03:11:56;;;;;;;14.57;13.27;;;18.90;99.90;;;;;;5114834;28;20178;-76
2021/07/24 03:14:22;;;;;;;13.27;12.07;;;18.90;99.90;;;;;;5116357;28;20176;-70
2021/07/24 03:16:48;;;;;;;13.00;11.77;;;18.90;99.90;;;;;;5110891;28;20233;-70
2021/07/24 03:19:13;;;;;;;13.70;12.50;;;18.80;99.90;;;;;;5095340;28;20215;-70
2021/07/24 03:21:39;;;;;;;14.80;13.23;;;18.80;99.90;;;;;;5095156;28;20578;-70
2021/07/24 03:24:05;;;;;;;14.30;13.00;;;18.60;99.90;;;;;;5095134;28;20173;-70
2021/07/24 03:26:30;;;;;;;13.50;12.27;;;18.50;99.90;;;;;;5094951;28;20175;-70
2021/07/24 03:28:56;;;;;;;14.40;13.07;;;18.40;99.90;;;;;;5094258;28;20567;-77
2021/07/24 03:31:22;;;;;;;14.70;13.20;;;18.40;99.90;;;;;;5095388;28;20605;-70
2021/07/24 03:33:47;;;;;;;14.77;13.40;;;18.30;99.90;;;;;;5095793;28;20619;-70
2021/07/24 03:36:13;;;;;;;13.83;12.53;;;18.10;99.90;;;;;;5094475;28;20176;-70
2021/07/24 03:38:39;;;;;;;14.50;13.20;;;18.20;99.90;;;;;;5095773;28;20648;-69
2021/07/24 03:41:05;;;;;;;14.40;12.90;;;18.20;99.90;;;;;;5095034;28;20616;-70
2021/07/24 03:43:31;;;;;;;15.27;13.07;;;18.30;99.90;;;;;;5095139;28;20184;-70
2021/07/24 03:45:57;;;;;;;13.63;12.33;;;18.40;99.90;;;;;;5094851;28;20450;-77
2021/07/24 03:48:23;;;;;;;16.47;14.77;;;18.40;99.90;;;;;;5095975;28;20487;-70
2021/07/24 03:50:48;;;;;;;14.63;12.67;;;18.40;99.90;;;;;;5094652;28;20245;-70
2021/07/24 03:53:14;;;;;;;13.37;12.27;;;18.30;99.90;;;;;;5094741;28;20180;-70
2021/07/24 03:55:40;;;;;;;14.70;13.30;;;18.40;99.90;;;;;;5095809;28;20204;-70
2021/07/24 03:58:05;;;;;;;17.10;13.87;;;18.40;99.90;;;;;;5094756;28;20497;-70
2021/07/24 04:00:40;;;;;;;13.93;12.67;;;18.50;99.90;;;;;;5095702;28;20168;-70
2021/07/24 04:03:06;;;;;;;14.20;12.90;;;18.40;99.90;;;;;;5095195;28;20156;-70
2021/07/24 04:05:38;;;;;;;13.83;12.57;;;18.40;99.90;;;;;;5095920;28;20484;-70
2021/07/24 04:08:05;;;;;;;14.57;13.23;;;18.40;99.90;;;;;;5095037;28;20212;-71
2021/07/24 04:10:32;;;;;;;14.43;13.13;;;18.30;99.90;;;;;;5095502;28;20772;-70
2021/07/24 04:12:58;;;;;;;14.93;13.43;;;18.30;99.90;;;;;;5105959;28;20414;-79
2021/07/24 04:15:24;;;;;;;14.30;12.90;;;18.30;99.90;;;;;;5116363;27;20512;-70
2021/07/24 04:17:51;;;;;;;16.20;14.50;;;18.30;99.90;;;;;;5115786;28;20177;-70
2021/07/24 04:20:20;;;;;;;15.63;14.07;;;18.30;99.90;;;;;;5115105;28;20244;-69
2021/07/24 04:22:46;;;;;;;15.87;14.37;;;18.30;99.90;;;;;;5115683;28;20897;-70
2021/07/24 04:25:12;;;;;;;14.67;13.37;;;18.40;99.90;;;;;;5114972;28;20486;-70
2021/07/24 04:27:39;;;;;;;14.73;13.37;;;18.40;99.90;;;;;;5115552;28;20225;-70
2021/07/24 04:30:06;;;;;;;15.00;13.60;;;18.50;99.90;;;;;;5114680;28;20210;-71
2021/07/24 04:32:31;;;;;;;14.93;13.60;;;18.50;99.90;;;;;;5113084;28;20413;-70
2021/07/24 04:34:57;;;;;;;15.10;13.80;;;18.60;99.90;;;;;;5115481;28;20420;-70
2021/07/24 04:37:23;;;;;;;14.40;13.00;;;18.50;99.90;;;;;;5114766;28;20248;-70
2021/07/24 04:39:48;;;;;;;14.23;13.03;;;18.50;99.90;;;;;;5115559;28;20168;-70
2021/07/24 04:42:14;;;;;;;14.80;13.50;;;18.50;99.90;;;;;;5114704;28;20172;-70
2021/07/24 04:44:40;;;;;;;15.40;14.10;;;18.30;99.90;;;;;;5114747;28;20227;-70
2021/07/24 04:47:05;;;;;;;15.60;14.20;;;18.40;99.90;;;;;;5113019;28;20623;-70
2021/07/24 04:49:32;;;;;;;15.60;14.30;;;18.50;99.90;;;;;;5094647;28;20249;-70
2021/07/24 04:51:59;;;;;;;15.90;14.20;;;18.50;99.90;;;;;;5094728;28;20508;-70
2021/07/24 04:54:27;;;;;;;15.73;14.23;;;18.60;99.90;;;;;;5093863;28;20814;-70
2021/07/24 04:56:53;;;;;;;15.97;14.27;;;18.60;99.90;;;;;;5094681;28;20465;-70
2021/07/24 04:59:19;;;;;;;14.97;13.63;;;18.60;99.90;;;;;;5093995;28;20914;-70
2021/07/24 05:01:45;;;;;;;15.27;13.87;;;18.70;99.90;;;;;;5094513;28;20951;-70
2021/07/24 05:04:12;;;;;;;16.10;14.70;;;18.70;99.90;;;;;;5093763;28;20440;-70
2021/07/24 05:06:38;;;;;;;16.60;14.90;;;18.80;99.90;;;;;;5094422;28;20247;-70
2021/07/24 05:09:06;;;;;;;16.43;14.93;;;18.70;99.90;;;;;;5094056;28;20510;-71
2021/07/24 05:11:34;;;;;;;16.40;14.90;;;18.80;99.90;;;;;;5094060;28;20577;-70
2021/07/24 05:14:00;;;;;;;15.47;14.13;;;18.70;99.90;;;;;;5093845;28;20441;-70
2021/07/24 05:16:25;;;;;;;15.50;13.97;;;18.80;99.90;;;;;;5093595;28;20399;-70
2021/07/24 05:18:51;;;;;;;14.60;13.27;;;18.90;99.90;;;;;;5094479;28;20423;-70
2021/07/24 05:21:19;;;;;;;16.17;14.77;;;19.00;99.90;;;;;;5093504;28;20168;-70
2021/07/24 05:23:45;;;;;;;16.90;15.47;;;19.10;99.90;;;;;;5093178;28;20176;-70
2021/07/24 05:26:14;;;;;;;15.63;14.13;;;19.20;99.90;;;;;;5092894;28;20810;-71
2021/07/24 05:28:41;;;;;;;15.67;14.17;;;19.10;99.90;;;;;;5093619;28;20164;-70
2021/07/24 05:31:15;;;;;;;15.30;13.90;;;19.20;99.90;;;;;;5093240;28;20924;-71
2021/07/24 05:33:40;;;;;;;13.93;12.67;;;19.30;99.90;;;;;;5093769;28;20419;-71
2021/07/24 05:36:06;;;;;;;15.07;13.77;;;19.40;99.90;;;;;;5093278;28;20415;-71
2021/07/24 05:38:32;;;;;;;15.70;14.20;;;19.40;99.90;;;;;;5093560;28;20192;-71
2021/07/24 05:41:00;;;;;;;16.43;14.90;;;19.50;99.90;;;;;;5093826;28;20501;-70
2021/07/24 05:43:26;;;;;;;17.00;15.47;;;19.40;99.90;;;;;;5092833;28;20207;-71
2021/07/24 05:45:51;;;;;;;15.93;14.40;;;19.20;99.90;;;;;;5093759;28;20482;-71
2021/07/24 05:48:17;;;;;;;15.80;14.20;;;19.10;99.90;;;;;;5093119;28;20414;-70
2021/07/24 05:50:43;;;;;;;16.40;15.00;;;19.20;99.90;;;;;;5093599;28;20697;-70
2021/07/24 05:53:08;;;;;;;15.20;13.70;;;19.10;99.90;;;;;;5092493;28;20176;-71
2021/07/24 05:55:34;;;;;;;15.60;14.20;;;19.00;99.90;;;;;;5092416;28;20180;-70
2021/07/24 05:58:00;;;;;;;17.80;15.90;;;19.20;99.90;;;;;;5091776;28;20554;-70
2021/07/24 06:00:26;;;;;;;16.80;15.30;;;19.20;99.90;;;;;;5091786;28;20406;-70
2021/07/24 06:02:51;;;;;;;17.07;15.40;;;19.30;99.90;;;;;;5093252;28;20699;-70
2021/07/24 06:05:17;;;;;;;17.13;15.63;;;19.20;99.90;;;;;;5091826;28;20258;-70
2021/07/24 06:07:43;;;;;;;15.70;14.30;;;19.30;99.90;;;;;;5092931;28;20525;-70
2021/07/24 06:10:09;;;;;;;15.90;14.50;;;19.40;99.90;;;;;;5092212;28;20406;-77
2021/07/24 06:12:35;;;;;;;15.70;14.30;;;19.50;99.90;;;;;;5092882;28;20165;-70
2021/07/24 06:15:01;;;;;;;15.03;13.83;;;19.60;99.90;;;;;;5092119;28;20432;-70
2021/07/24 06:17:26;;;;;;;15.97;14.37;;;19.60;99.90;;;;;;5092068;28;20191;-70
2021/07/24 06:19:52;;;;;;;15.20;13.90;;;19.60;99.90;;;;;;5091622;28;20249;-70
2021/07/24 06:22:18;;;;;;;15.47;13.87;;;19.70;99.90;;;;;;5091479;28;20168;-70
2021/07/24 06:24:43;;;;;;;15.23;13.83;;;19.80;99.90;;;;;;5092562;28;20598;-70
2021/07/24 06:27:09;;;;;;;16.20;14.70;;;19.80;99.90;;;;;;5091794;28;20261;-78
2021/07/24 06:29:35;;;;;;;15.27;13.80;;;19.90;99.90;;;;;;5092594;28;20247;-70
2021/07/24 06:32:00;;;;;;;14.83;13.50;;;19.90;99.90;;;;;;5091621;28;20628;-70
2021/07/24 06:34:26;;;;;;;15.17;13.77;;;20.00;99.90;;;;;;5090927;28;20187;-74
2021/07/24 06:36:52;;;;;;;15.67;14.10;;;20.10;99.90;;;;;;5091474;28;20186;-72
2021/07/24 06:39:19;;;;;;;15.10;13.70;;;20.20;99.90;;;;;;5090121;28;20664;-81
2021/07/24 06:41:44;;;;;;;14.73;13.37;;;20.40;99.90;;;;;;5090761;28;20184;-72
2021/07/24 06:44:10;;;;;;;15.20;13.90;;;20.60;99.90;;;;;;5091174;28;20462;-80
2021/07/24 06:46:37;;;;;;;15.47;13.87;;;20.80;99.90;;;;;;5091324;28;20228;-72
2021/07/24 06:49:03;;;;;;;15.70;14.30;;;21.00;99.90;;;;;;5091550;28;20442;-72
2021/07/24 06:51:28;;;;;;;14.20;12.87;;;21.10;99.90;;;;;;5090180;28;20172;-73
2021/07/24 06:53:54;;;;;;;14.40;13.10;;;21.30;99.90;;;;;;5093620;28;20180;-72
2021/07/24 06:56:20;;;;;;;14.07;12.97;;;21.50;99.90;;;;;;5088724;28;20211;-72
2021/07/24 06:58:45;;;;;;;14.17;12.97;;;21.60;99.90;;;;;;5091356;28;20259;-72
2021/07/24 07:01:11;;;;;;;14.87;13.60;;;21.70;99.90;;;;;;5098133;28;20175;-78
2021/07/24 07:03:37;;;;;;;14.30;13.20;;;21.80;99.90;;;;;;5100097;28;20169;-72
2021/07/24 07:06:08;;;;;;;14.00;12.83;;;22.00;99.90;;;;;;5090635;28;20667;-74
2021/07/24 07:08:34;;;;;;;14.27;13.03;;;22.10;99.80;;;;;;5091553;28;20184;-72
2021/07/24 07:11:05;;;;;;;14.93;13.50;;;22.20;99.90;;;;;;5106277;28;20401;-73
2021/07/24 07:13:31;;;;;;;14.87;12.57;;;22.30;99.90;;;;;;5089566;28;20430;-73
2021/07/24 07:15:57;;;;;;;14.97;12.83;;;22.20;99.50;;;;;;5092105;28;20417;-72
2021/07/24 07:18:24;;;;;;;14.77;13.47;;;22.30;99.20;;;;;;5090690;28;20418;-72
2021/07/24 07:20:50;;;;;;;15.70;14.10;;;22.30;99.00;;;;;;5091767;28;20413;-71
2021/07/24 07:23:16;;;;;;;14.80;13.20;;;22.30;98.40;;;;;;5090590;28;20425;-72
2021/07/24 07:25:41;;;;;;;14.50;13.10;;;22.40;99.10;;;;;;5090870;28;20454;-71
2021/07/24 07:28:09;;;;;;;15.23;13.80;;;22.40;99.10;;;;;;5091379;28;20538;-75
2021/07/24 07:30:34;;;;;;;15.07;13.77;;;22.60;99.20;;;;;;5091451;28;20187;-72
2021/07/24 07:33:00;;;;;;;13.80;12.43;;;22.70;99.20;;;;;;5095058;28;20418;-72
2021/07/24 07:35:26;;;;;;;18.90;17.20;;;22.80;99.10;;;;;;5111471;28;20179;-71
2021/07/24 07:37:54;;;;;;;15.53;14.10;;;22.90;99.50;;;;;;5096892;28;20176;-71
2021/07/24 07:40:21;;;;;;;15.73;14.13;;;23.00;99.00;;;;;;5091726;28;20172;-70
2021/07/24 07:42:47;;;;;;;14.17;13.00;;;23.10;98.20;;;;;;5092514;28;20417;-70
2021/07/24 07:45:12;;;;;;;15.03;13.83;;;23.20;98.20;;;;;;5091409;28;20938;-77
2021/07/24 07:47:38;;;;;;;16.33;13.87;;;23.30;98.20;;;;;;5091169;28;20196;-71
2021/07/24 07:50:08;;;;;;;16.73;13.37;;;23.40;98.30;;;;;;5095487;28;20177;-71
2021/07/24 07:52:35;;;;;;;14.17;12.97;;;23.40;98.00;;;;;;5095696;28;20403;-71
2021/07/24 07:55:01;;;;;;;14.80;13.50;;;23.40;97.70;;;;;;5095302;28;20422;-71
2021/07/24 07:57:26;;;;;;;15.50;14.17;;;23.50;97.50;;;;;;5093437;28;20498;-69
2021/07/24 07:59:52;;;;;;;16.90;15.37;;;23.50;97.10;;;;;;5095606;28;20187;-70
2021/07/24 08:02:18;;;;;;;13.80;12.70;;;23.60;97.60;;;;;;5095209;28;20420;-69
2021/07/24 08:04:44;;;;;;;14.03;12.93;;;23.60;97.40;;;;;;5095444;28;20260;-69
2021/07/24 08:07:10;;;;;;;14.77;13.30;;;23.60;97.00;;;;;;5094879;28;20214;-84
2021/07/24 08:09:36;;;;;;;14.83;13.43;;;23.70;97.30;;;;;;5095515;28;20445;-69
2021/07/24 08:12:01;;;;;;;15.07;13.67;;;23.70;97.20;;;;;;5095647;28;20164;-69
2021/07/24 08:14:27;;;;;;;15.40;14.00;;;23.80;97.60;;;;;;5094858;28;20294;-71
2021/07/24 08:16:53;;;;;;;14.43;13.23;;;23.90;98.20;;;;;;5095095;28;20260;-72
2021/07/24 08:19:18;;;;;;;15.20;13.90;;;24.00;97.80;;;;;;5094827;28;20180;-72
2021/07/24 08:21:44;;;;;;;15.17;13.87;;;24.00;97.90;;;;;;5095356;28;20642;-71
2021/07/24 08:24:10;;;;;;;15.10;13.33;;;24.10;97.20;;;;;;5095303;28;20202;-71
2021/07/24 08:26:36;;;;;;;14.77;13.37;;;24.00;97.20;;;;;;5094738;28;20269;-71
2021/07/24 08:29:02;;;;;;;16.00;14.33;;;24.10;97.30;;;;;;5094945;28;20422;-71
2021/07/24 08:31:28;;;;;;;14.53;13.30;;;24.10;97.40;;;;;;5094166;28;20176;-71
2021/07/24 08:33:54;;;;;;;14.77;13.63;;;24.10;97.10;;;;;;5095039;28;20797;-70
2021/07/24 08:36:19;;;;;;;15.23;13.93;;;24.30;97.80;;;;;;5127036;27;20176;-70
2021/07/24 08:38:45;;;;;;;14.00;12.87;;;24.30;96.60;;;;;;5095337;28;20535;-70
2021/07/24 08:41:15;;;;;;;15.33;13.93;;;24.40;97.30;;;;;;5094725;28;20195;-70
2021/07/24 08:43:44;;;;;;;16.13;14.43;;;24.50;97.20;;;;;;5095913;28;20212;-76
2021/07/24 08:46:12;;;;;;;15.27;14.07;;;24.70;98.20;;;;;;5111288;27;20523;-70
2021/07/24 08:48:38;;;;;;;14.83;13.63;;;24.80;98.00;;;;;;5105415;27;20495;-70
2021/07/24 08:51:05;;;;;;;15.97;14.77;;;24.90;97.90;;;;;;5094462;28;20423;-72
2021/07/24 08:53:33;;;;;;;15.60;14.37;;;25.00;97.40;;;;;;5095775;28;20767;-70
2021/07/24 08:56:13;;;;;;;15.60;14.20;;;25.20;98.10;;;;;;5094813;28;20411;-70
2021/07/24 08:58:42;;;;;;;16.87;15.23;;;25.30;97.40;;;;;;5094745;28;20433;-70
2021/07/24 09:01:17;;;;;;;16.23;14.73;;;25.50;96.90;;;;;;5094287;28;20414;-70
2021/07/24 09:03:44;;;;;;;16.40;15.10;;;25.70;97.10;;;;;;5094726;28;20398;-70
2021/07/24 09:06:13;;;;;;;17.17;15.80;;;25.90;96.30;;;;;;5094355;28;20450;-70
2021/07/24 09:08:40;;;;;;;17.57;16.07;;;26.00;96.30;;;;;;5093413;28;20414;-70
2021/07/24 09:11:07;;;;;;;16.00;14.70;;;26.20;96.70;;;;;;5093036;28;20398;-71
2021/07/24 09:13:33;;;;;;;15.83;14.30;;;26.30;96.50;;;;;;5094030;28;20476;-70
2021/07/24 09:15:58;;;;;;;16.07;14.63;;;26.50;95.50;;;;;;5094338;28;20917;-71
2021/07/24 09:18:25;;;;;;;19.97;18.10;;;26.60;94.80;;;;;;5093893;28;20651;-71
2021/07/24 09:20:52;;;;;;;16.03;14.57;;;26.80;95.10;;;;;;5094638;28;20172;-72
2021/07/24 09:23:33;;;;;;;17.03;15.47;;;26.80;94.00;;;;;;5093911;28;20821;-72
2021/07/24 09:26:00;;;;;;;15.80;14.40;;;26.90;94.20;;;;;;5094506;28;20444;-71
2021/07/24 09:28:26;;;;;;;15.30;14.00;;;27.00;94.50;;;;;;5093950;28;20398;-71
2021/07/24 09:30:52;;;;;;;14.67;13.37;;;27.00;94.30;;;;;;5093852;28;20468;-70
2021/07/24 09:33:20;;;;;;;16.00;14.70;;;27.10;94.20;;;;;;5092417;28;20176;-72
2021/07/24 09:35:46;;;;;;;15.80;14.20;;;27.10;93.90;;;;;;5094108;28;20854;-71
2021/07/24 09:38:33;;;;;;;16.50;15.10;;;27.10;93.90;;;;;;5093887;28;20912;-71
2021/07/24 09:41:02;;;;;;;17.50;16.00;;;27.10;94.80;;;;;;5092919;28;20418;-70
2021/07/24 09:43:31;;;;;;;16.27;14.97;;;27.10;94.80;;;;;;5081398;28;20476;-71
2021/07/24 09:46:18;;;;;;;16.83;15.33;;;27.10;94.00;;;;;;5091648;28;20442;-71
2021/07/24 09:48:46;;;;;;;16.37;15.07;;;27.10;94.10;;;;;;5093271;28;20438;-79
2021/07/24 09:51:12;;;;;;;17.03;15.43;;;27.20;94.60;;;;;;5093301;28;20430;-71
2021/07/24 09:53:42;;;;;;;17.50;15.80;;;27.10;93.90;;;;;;5092269;28;20430;-69
2021/07/24 09:56:18;;;;;;;17.20;15.60;;;27.10;94.10;;;;;;5092732;28;20426;-70
2021/07/24 09:58:45;;;;;;;16.00;14.57;;;27.10;94.40;;;;;;5083792;28;20447;-71
2021/07/24 10:01:12;;;;;;;18.00;16.50;;;27.10;94.10;;;;;;5093271;28;20430;-70
2021/07/24 10:03:39;;;;;;;15.53;14.03;;;27.10;94.40;;;;;;5092660;28;20446;-70
2021/07/24 10:06:16;;;;;;;16.60;15.20;;;27.10;94.10;;;;;;5092638;28;20462;-70
2021/07/24 10:08:43;;;;;;;15.37;13.97;;;27.10;94.30;;;;;;5092028;28;20910;-70
2021/07/24 10:11:10;;;;;;;17.83;14.73;;;27.10;94.20;;;;;;5092537;28;20916;-70
2021/07/24 10:13:39;;;;;;;15.33;14.13;;;27.10;92.70;;;;;;5092355;28;20408;-70
2021/07/24 10:16:05;;;;;;;15.57;14.37;;;27.10;93.60;;;;;;5093302;28;20505;-70
2021/07/24 10:18:32;;;;;;;14.23;13.03;;;27.00;91.20;;;;;;5092670;28;20418;-70
2021/07/24 10:20:58;;;;;;;18.33;16.57;;;26.80;91.60;;;;;;5093228;28;20399;-70
2021/07/24 10:23:24;;;;;;;16.70;15.37;;;26.80;90.30;;;;;;5092565;28;20406;-70
2021/07/24 10:26:10;;;;;;;15.83;14.63;;;26.80;90.10;;;;;;5092005;28;20655;-70
2021/07/24 10:28:53;;;;;;;15.60;14.30;;;26.90;92.30;;;;;;5092571;28;20417;-70
2021/07/24 10:31:33;;;;;;;13.77;12.67;;;26.90;92.10;;;;;;5092591;28;20961;-73
2021/07/24 10:34:02;;;;;;;17.40;15.40;;;27.00;90.90;;;;;;5093422;28;20459;-70
2021/07/24 10:36:42;;;;;;;15.07;13.77;;;27.00;90.80;;;;;;5092422;28;20437;-70
2021/07/24 10:39:16;;;;;;;15.47;14.07;;;26.90;90.00;;;;;;5093093;28;20399;-70
2021/07/24 10:41:46;;;;;;;15.97;14.67;;;26.90;90.40;;;;;;5092167;28;20494;-70
2021/07/24 10:44:36;;;;;;;25.33;23.10;;;26.80;89.00;;;;;;5091278;28;20468;-69
2021/07/24 10:47:02;;;;;;;16.30;14.90;;;26.80;90.50;;;;;;5093261;28;20978;-70
2021/07/24 10:49:33;;;;;;;21.40;19.53;;;26.80;90.00;;;;;;5090990;28;20521;-69
2021/07/24 10:52:07;;;;;;;15.77;14.53;;;26.80;89.00;;;;;;5092165;28;20176;-70
2021/07/24 10:54:54;;;;;;;42.20;37.90;;;26.70;89.40;;;;;;5091820;28;20713;-72
2021/07/24 10:57:44;;;;;;;27.60;25.10;;;26.60;89.60;;;;;;5091960;28;20497;-70
2021/07/24 11:00:31;;;;;;;38.23;34.63;;;26.60;90.10;;;;;;5089757;28;20422;-71
2021/07/24 11:02:57;;;;;;;16.80;15.13;;;26.60;90.50;;;;;;5092220;28;20410;-70
2021/07/24 11:05:28;;;;;;;15.60;14.20;;;26.60;90.60;;;;;;5087468;28;20539;-81
2021/07/24 11:07:54;;;;;;;15.93;14.63;;;26.60;90.30;;;;;;5092890;28;20187;-70
2021/07/24 11:10:21;;;;;;;15.70;14.37;;;26.60;90.50;;;;;;5090197;28;20417;-75
2021/07/24 11:12:47;;;;;;;14.73;13.43;;;26.30;89.70;;;;;;5090915;28;20429;-70
2021/07/24 11:15:48;;;;;;;16.53;15.07;;;26.00;90.30;;;;;;5092035;28;20862;-72
2021/07/24 11:18:21;;;;;;;15.90;14.43;;;26.00;90.30;;;;;;5091358;28;20717;-69
2021/07/24 11:20:46;;;;;;;16.47;15.13;;;26.00;90.70;;;;;;5089956;28;20418;-70
2021/07/24 11:23:12;;;;;;;16.57;15.23;;;26.00;91.30;;;;;;5095122;28;20417;-69
2021/07/24 11:25:39;;;;;;;17.00;14.50;;;26.00;91.10;;;;;;5095048;28;20200;-69
2021/07/24 11:28:06;;;;;;;17.13;15.70;;;25.70;91.00;;;;;;5096336;28;20179;-69
2021/07/24 11:30:32;;;;;;;16.20;14.67;;;25.60;91.10;;;;;;5094960;28;20426;-69
2021/07/24 11:32:58;;;;;;;16.77;15.37;;;25.60;91.30;;;;;;5095895;28;20405;-70
2021/07/24 11:35:30;;;;;;;20.47;18.60;;;25.60;91.10;;;;;;5094307;28;20434;-83
2021/07/24 11:37:57;;;;;;;31.53;28.53;;;25.50;91.10;;;;;;5095165;28;20180;-71
2021/07/24 11:40:28;;;;;;;33.60;30.30;;;25.50;91.50;;;;;;5095032;28;20467;-78
2021/07/24 11:43:01;;;;;;;17.43;15.93;;;25.50;91.70;;;;;;5095730;28;20410;-72
2021/07/24 11:45:32;;;;;;;17.37;15.60;;;25.60;92.20;;;;;;5093886;28;20466;-71
2021/07/24 11:48:10;;;;;;;16.77;15.27;;;25.60;91.70;;;;;;5095908;28;20407;-71
2021/07/24 11:50:37;;;;;;;15.77;14.37;;;25.60;91.80;;;;;;5094458;28;20414;-72
2021/07/24 11:53:04;;;;;;;18.50;16.90;;;25.60;91.70;;;;;;5096199;28;20417;-72
2021/07/24 11:55:34;;;;;;;16.87;15.47;;;25.60;92.20;;;;;;5095014;28;20398;-75
2021/07/24 11:58:08;;;;;;;18.80;17.30;;;25.60;92.80;;;;;;5095647;28;20459;-74
2021/07/24 12:00:46;;;;;;;15.77;14.33;;;25.70;92.50;;;;;;5094876;28;20804;-74
2021/07/24 12:03:23;;;;;;;17.57;15.27;;;25.80;93.20;;;;;;5095425;28;20832;-75
2021/07/24 12:05:54;;;;;;;16.80;15.40;;;25.90;93.20;;;;;;5095404;28;20461;-73
2021/07/24 12:08:25;;;;;;;26.77;23.53;;;26.00;93.00;;;;;;5095681;28;20391;-74
2021/07/24 12:10:52;;;;;;;18.97;17.10;;;26.20;93.20;;;;;;5095499;28;20437;-72
2021/07/24 12:13:23;;;;;;;17.73;16.13;;;26.30;92.40;;;;;;5095077;28;20759;-75
2021/07/24 12:16:08;;;;;;;16.30;14.90;;;26.30;92.60;;;;;;5095454;28;20844;-75
2021/07/24 12:18:45;;;;;;;17.33;15.73;;;26.40;92.40;;;;;;5094494;28;20729;-74
2021/07/24 12:21:19;;;;;;;17.40;15.70;;;26.40;90.90;;;;;;5095045;28;20391;-74
2021/07/24 12:23:59;;;;;;;16.40;14.80;;;26.40;91.50;;;;;;5094666;28;20424;-73
2021/07/24 12:26:31;;;;;;;17.80;16.33;;;26.40;91.00;;;;;;5093292;28;20450;-75
2021/07/24 12:28:59;;;;;;;16.00;14.50;;;26.40;90.90;;;;;;5093977;28;20398;-74
2021/07/24 12:31:30;;;;;;;17.87;16.20;;;26.30;91.50;;;;;;5093368;28;20779;-78
2021/07/24 12:34:01;;;;;;;16.17;14.67;;;26.30;91.50;;;;;;5093230;28;20849;-74